createdAt,value
2023-01-04T00:00:01.407Z,5.83
2023-01-04T00:02:30.220Z,6.01
2023-01-04T00:04:58.541Z,6.11
2023-01-04T00:07:26.604Z,6.13
2023-01-04T00:09:54.734Z,6.14
2023-01-04T00:12:22.872Z,5.93
2023-01-04T00:14:52.418Z,5.85
2023-01-04T00:17:20.511Z,5.67
2023-01-04T00:19:48.614Z,5.56
2023-01-04T00:22:16.774Z,5.37
2023-01-04T00:24:44.958Z,5.25
2023-01-04T00:27:13.124Z,5.11
2023-01-04T00:29:41.216Z,4.93
2023-01-04T00:32:10.791Z,4.76
2023-01-04T00:34:38.923Z,4.62
2023-01-04T00:37:08.116Z,4.48
2023-01-04T00:39:36.308Z,4.43
2023-01-04T00:42:06.466Z,4.31
2023-01-04T00:44:35.703Z,4.23
2023-01-04T00:47:05.296Z,4.16
2023-01-04T00:49:34.927Z,4.12
2023-01-04T00:52:03.432Z,4.12
2023-01-04T00:54:31.666Z,4.07
2023-01-04T00:57:01.398Z,4.41
2023-01-04T00:59:29.896Z,4.71
2023-01-04T01:01:58.836Z,4.65
2023-01-04T01:04:27.203Z,4.61
2023-01-04T01:06:56.885Z,4.52
2023-01-04T01:09:25.667Z,4.60
2023-01-04T01:11:54.626Z,4.55
2023-01-04T01:14:25.071Z,4.61
2023-01-04T01:16:57.804Z,4.71
2023-01-04T01:19:27.692Z,4.70
2023-01-04T01:21:58.124Z,4.86
2023-01-04T01:24:26.938Z,4.88
2023-01-04T01:26:55.737Z,4.87
2023-01-04T01:29:24.123Z,4.95
2023-01-04T01:31:52.538Z,4.95
2023-01-04T01:34:20.775Z,4.99
2023-01-04T01:36:49.035Z,5.00
2023-01-04T01:39:18.573Z,4.93
2023-01-04T01:41:46.740Z,4.90
2023-01-04T01:44:51.978Z,4.88
2023-01-04T01:47:22.722Z,4.62
2023-01-04T01:49:54.775Z,4.43
2023-01-04T01:52:25.735Z,4.44
2023-01-04T01:55:00.277Z,4.20
2023-01-04T01:57:33.312Z,4.00
2023-01-04T02:00:05.971Z,3.81
2023-01-04T02:02:34.643Z,3.61
2023-01-04T02:05:04.448Z,3.44
2023-01-04T02:07:33.017Z,3.29
2023-01-04T02:10:02.592Z,3.20
2023-01-04T02:12:33.634Z,3.08
2023-01-04T02:15:02.233Z,3.10
2023-01-04T02:17:40.508Z,2.90
2023-01-04T02:20:37.751Z,2.80
2023-01-04T02:23:51.766Z,2.75
2023-01-04T02:26:55.222Z,2.67
2023-01-04T02:29:42.204Z,2.62
2023-01-04T02:32:18.492Z,2.56
2023-01-04T02:34:59.043Z,2.56
2023-01-04T02:37:38.002Z,2.51
2023-01-04T02:40:15.428Z,2.45
2023-01-04T02:43:13.871Z,2.36
2023-01-04T02:45:48.890Z,2.28
2023-01-04T02:48:35.950Z,2.19
2023-01-04T02:51:04.097Z,2.24
2023-01-04T02:53:41.316Z,2.24
2023-01-04T02:56:17.213Z,2.26
2023-01-04T02:59:05.927Z,2.34
2023-01-04T03:02:04.912Z,2.28
2023-01-04T03:05:05.844Z,2.51
2023-01-04T03:07:39.916Z,2.42
2023-01-04T03:10:16.394Z,2.50
2023-01-04T03:12:49.074Z,2.50
2023-01-04T03:15:22.676Z,2.44
2023-01-04T03:17:55.798Z,2.40
2023-01-04T03:20:29.311Z,2.30
2023-01-04T03:23:18.113Z,2.25
2023-01-04T03:26:19.634Z,2.22
2023-01-04T03:29:06.534Z,2.37
2023-01-04T03:31:56.631Z,2.25
2023-01-04T03:34:42.507Z,2.20
2023-01-04T03:37:17.703Z,2.07
2023-01-04T03:40:15.583Z,2.04
2023-01-04T03:43:06.057Z,2.11
2023-01-04T03:45:57.020Z,2.03
2023-01-04T03:48:31.615Z,1.96
2023-01-04T03:51:16.284Z,1.92
2023-01-04T03:53:57.818Z,1.87
2023-01-04T03:56:28.011Z,1.78
2023-01-04T03:58:56.549Z,1.73
2023-01-04T04:01:27.319Z,1.80
2023-01-04T04:04:13.457Z,1.84
2023-01-04T04:06:59.538Z,1.87
2023-01-04T04:09:29.058Z,1.81
2023-01-04T04:11:57.473Z,1.81
2023-01-04T04:14:25.802Z,1.80
2023-01-04T04:16:54.033Z,1.77
2023-01-04T04:19:22.289Z,1.80
2023-01-04T04:21:50.451Z,1.77
2023-01-04T04:24:20.432Z,1.74
2023-01-04T04:26:50.192Z,1.72
2023-01-04T04:29:19.121Z,1.80
2023-01-04T04:31:47.656Z,1.75
2023-01-04T04:34:15.914Z,1.72
2023-01-04T04:36:44.089Z,1.71
2023-01-04T04:39:12.734Z,1.71
2023-01-04T04:41:41.814Z,1.73
2023-01-04T04:44:13.384Z,1.59
2023-01-04T04:46:42.202Z,1.62
2023-01-04T04:49:11.701Z,1.57
2023-01-04T04:51:39.901Z,1.57
2023-01-04T04:54:09.600Z,1.55
2023-01-04T04:56:39.050Z,1.57
2023-01-04T04:59:07.964Z,1.54
2023-01-04T05:01:37.977Z,1.46
2023-01-04T05:04:06.601Z,1.44
2023-01-04T05:06:34.878Z,1.47
2023-01-04T05:09:03.017Z,1.45
2023-01-04T05:11:48.362Z,1.50
2023-01-04T05:14:16.469Z,1.53
2023-01-04T05:16:46.475Z,1.55
2023-01-04T05:19:14.637Z,1.55
2023-01-04T05:21:42.890Z,1.59
2023-01-04T05:24:13.446Z,1.54
2023-01-04T05:26:41.714Z,1.56
2023-01-04T05:29:30.576Z,1.55
2023-01-04T05:31:59.175Z,1.60
2023-01-04T05:34:27.384Z,1.56
2023-01-04T05:36:55.626Z,1.58
2023-01-04T05:39:23.808Z,1.55
2023-01-04T05:42:09.455Z,1.53
2023-01-04T05:44:37.634Z,1.51
2023-01-04T05:47:15.011Z,1.48
2023-01-04T05:49:43.776Z,1.45
2023-01-04T05:52:12.476Z,1.45
2023-01-04T05:54:40.798Z,1.42
2023-01-04T05:57:09.155Z,1.49
2023-01-04T05:59:41.885Z,1.59
2023-01-04T06:02:16.174Z,1.49
2023-01-04T06:04:44.521Z,1.46
2023-01-04T06:07:12.788Z,1.52
2023-01-04T06:09:40.958Z,1.49
2023-01-04T06:12:09.220Z,1.47
2023-01-04T06:14:37.536Z,1.46
2023-01-04T06:17:06.452Z,1.43
2023-01-04T06:19:36.493Z,1.41
2023-01-04T06:22:05.167Z,1.42
2023-01-04T06:24:34.217Z,1.45
2023-01-04T06:27:02.608Z,1.42
2023-01-04T06:29:30.826Z,1.40
2023-01-04T06:31:59.312Z,1.39
2023-01-04T06:34:31.230Z,1.46
2023-01-04T06:37:01.614Z,1.46
2023-01-04T06:39:29.931Z,1.40
2023-01-04T06:42:05.849Z,1.34
2023-01-04T06:44:35.081Z,1.30
2023-01-04T06:47:03.354Z,1.27
2023-01-04T06:49:31.616Z,1.40
2023-01-04T06:52:01.311Z,1.42
2023-01-04T06:54:29.924Z,1.45
2023-01-04T06:56:58.151Z,1.46
2023-01-04T06:59:26.599Z,1.46
2023-01-04T07:01:54.962Z,1.48
2023-01-04T07:04:23.259Z,1.53
2023-01-04T07:06:51.466Z,1.64
2023-01-04T07:09:32.020Z,1.75
2023-01-04T07:12:02.647Z,1.93
2023-01-04T07:14:30.840Z,2.11
2023-01-04T07:16:59.318Z,2.29
2023-01-04T07:19:27.557Z,2.43
2023-01-04T07:21:56.039Z,2.50
2023-01-04T07:24:30.046Z,2.59
2023-01-04T07:27:00.318Z,2.62
2023-01-04T07:29:28.656Z,2.69
2023-01-04T07:31:57.031Z,2.73
2023-01-04T07:34:27.671Z,2.76
2023-01-04T07:36:56.168Z,2.82
2023-01-04T07:39:28.751Z,2.81
2023-01-04T07:41:57.384Z,2.88
2023-01-04T07:44:27.918Z,2.88
2023-01-04T07:46:56.470Z,2.83
2023-01-04T07:49:25.058Z,2.81
2023-01-04T07:51:53.438Z,2.79
2023-01-04T07:54:21.725Z,2.76
2023-01-04T07:56:52.051Z,2.86
2023-01-04T07:59:21.718Z,2.94
2023-01-04T08:01:52.275Z,3.04
2023-01-04T08:04:28.353Z,3.30
2023-01-04T08:06:59.441Z,3.35
2023-01-04T08:09:28.329Z,3.34
2023-01-04T08:11:58.171Z,3.32
2023-01-04T08:14:27.322Z,3.37
2023-01-04T08:16:58.533Z,3.39
2023-01-04T08:19:26.769Z,3.42
2023-01-04T08:21:55.966Z,3.41
2023-01-04T08:24:24.154Z,3.35
2023-01-04T08:26:52.331Z,3.35
2023-01-04T08:29:21.978Z,3.51
2023-01-04T08:31:50.331Z,3.67
2023-01-04T08:34:18.647Z,3.75
2023-01-04T08:36:49.363Z,3.74
2023-01-04T08:39:18.945Z,3.85
2023-01-04T08:42:00.441Z,3.99
2023-01-04T08:44:35.820Z,4.08
2023-01-04T08:47:04.689Z,4.09
2023-01-04T08:49:33.161Z,4.18
2023-01-04T08:52:01.825Z,4.24
2023-01-04T08:54:30.003Z,4.38
2023-01-04T08:56:58.380Z,4.49
2023-01-04T08:59:26.534Z,4.62
2023-01-04T09:02:01.212Z,4.74
2023-01-04T09:04:32.970Z,4.88
2023-01-04T09:07:01.180Z,4.97
2023-01-04T09:09:30.421Z,5.17
2023-01-04T09:11:59.893Z,5.27
2023-01-04T09:14:28.372Z,5.37
2023-01-04T09:16:59.328Z,5.48
2023-01-04T09:19:27.671Z,5.58
2023-01-04T09:21:55.965Z,5.48
2023-01-04T09:24:24.606Z,5.65
2023-01-04T09:26:53.099Z,5.80
2023-01-04T09:29:21.466Z,5.82
2023-01-04T09:31:49.801Z,5.86
2023-01-04T09:34:19.490Z,5.92
2023-01-04T09:36:49.421Z,5.98
2023-01-04T09:39:22.968Z,6.06
2023-01-04T09:41:58.475Z,6.13
2023-01-04T09:45:21.256Z,6.29
2023-01-04T09:47:36.780Z,6.38
2023-01-04T09:50:12.037Z,6.46
2023-01-04T09:52:49.179Z,6.52
2023-01-04T09:55:39.136Z,6.61
2023-01-04T09:58:16.694Z,6.64
2023-01-04T10:00:48.107Z,6.70
2023-01-04T10:03:20.461Z,6.74
2023-01-04T10:05:51.255Z,6.80
2023-01-04T10:08:21.229Z,6.94
2023-01-04T10:10:56.693Z,7.04
2023-01-04T10:13:44.506Z,7.39
2023-01-04T10:16:30.509Z,7.58
2023-01-04T10:20:58.619Z,7.70
2023-01-04T10:22:16.279Z,7.65
2023-01-04T10:24:55.910Z,7.86
2023-01-04T10:27:34.362Z,8.03
2023-01-04T10:30:20.961Z,8.11
2023-01-04T10:32:56.537Z,8.07
2023-01-04T10:35:28.582Z,7.96
2023-01-04T10:38:00.957Z,8.00
2023-01-04T10:40:33.806Z,8.03
2023-01-04T10:43:07.597Z,8.03
2023-01-04T10:45:43.823Z,8.11
2023-01-04T10:48:17.325Z,8.12
2023-01-04T10:50:53.568Z,8.18
2023-01-04T10:53:31.040Z,8.23
2023-01-04T10:56:25.280Z,8.24
2023-01-04T10:59:01.110Z,8.23
2023-01-04T11:01:35.881Z,8.18
2023-01-04T11:04:10.788Z,8.09
2023-01-04T11:06:45.772Z,8.12
2023-01-04T11:09:25.114Z,8.14
2023-01-04T11:11:56.663Z,8.17
2023-01-04T11:14:29.441Z,8.15
2023-01-04T11:17:05.666Z,8.13
2023-01-04T11:19:35.518Z,8.15
2023-01-04T11:22:10.307Z,8.24
2023-01-04T11:25:07.869Z,8.32
2023-01-04T11:27:41.605Z,8.36
2023-01-04T11:30:17.528Z,8.41
2023-01-04T11:32:52.349Z,8.44
2023-01-04T11:35:42.488Z,8.49
2023-01-04T11:38:14.471Z,8.49
2023-01-04T11:40:56.801Z,8.53
2023-01-04T11:43:26.710Z,8.57
2023-01-04T11:45:57.645Z,8.59
2023-01-04T11:48:41.292Z,8.59
2023-01-04T11:51:20.482Z,8.63
2023-01-04T11:53:59.177Z,8.67
2023-01-04T11:56:30.643Z,8.73
2023-01-04T11:59:19.229Z,8.85
2023-01-04T12:02:11.894Z,8.86
2023-01-04T12:04:40.210Z,8.86
2023-01-04T12:07:27.763Z,8.86
2023-01-04T12:09:56.192Z,8.86
2023-01-04T12:12:31.156Z,8.86
2023-01-04T12:15:03.940Z,8.84
2023-01-04T12:17:43.516Z,8.90
2023-01-04T12:20:19.542Z,8.92
2023-01-04T12:22:48.505Z,8.94
2023-01-04T12:25:33.569Z,8.91
2023-01-04T12:28:05.911Z,8.93
2023-01-04T12:30:37.640Z,8.95
2023-01-04T12:33:39.759Z,8.94
2023-01-04T12:36:09.849Z,8.96
2023-01-04T12:39:17.649Z,8.97
2023-01-04T12:42:18.823Z,8.97
2023-01-04T12:45:19.435Z,8.86
2023-01-04T12:48:07.473Z,8.75
2023-01-04T12:51:31.719Z,8.69
2023-01-04T12:54:03.023Z,8.71
2023-01-04T12:57:09.832Z,8.77
2023-01-04T12:59:39.329Z,8.81
2023-01-04T13:02:18.955Z,8.81
2023-01-04T13:04:47.480Z,8.83
2023-01-04T13:07:20.810Z,8.82
2023-01-04T13:09:54.197Z,8.85
2023-01-04T13:13:02.513Z,8.87
2023-01-04T13:15:53.963Z,8.85
2023-01-04T13:18:38.885Z,8.86
2023-01-04T13:21:14.180Z,8.89
2023-01-04T13:23:49.573Z,8.85
2023-01-04T13:26:39.776Z,8.82
2023-01-04T13:29:15.994Z,8.79
2023-01-04T13:31:48.825Z,8.67
2023-01-04T13:34:24.991Z,8.66
2023-01-04T13:37:04.043Z,8.59
2023-01-04T13:39:32.476Z,8.60
2023-01-04T13:42:01.472Z,8.57
2023-01-04T13:45:21.678Z,8.36
2023-01-04T13:47:44.462Z,8.24
2023-01-04T13:50:29.452Z,8.13
2023-01-04T13:53:13.511Z,8.00
2023-01-04T13:55:41.973Z,8.00
2023-01-04T13:58:18.961Z,7.90
2023-01-04T14:00:50.622Z,7.83
2023-01-04T14:03:43.131Z,7.75
2023-01-04T14:06:23.089Z,7.70
2023-01-04T14:08:59.827Z,7.61
2023-01-04T14:11:47.589Z,7.53
2023-01-04T14:14:24.311Z,7.46
2023-01-04T14:16:54.877Z,7.39
2023-01-04T14:19:42.566Z,7.30
2023-01-04T14:22:40.922Z,7.18
2023-01-04T14:25:48.897Z,7.08
2023-01-04T14:28:49.067Z,6.96
2023-01-04T14:31:30.337Z,6.84
2023-01-04T14:33:59.092Z,6.71
2023-01-04T14:36:33.405Z,6.59
2023-01-04T14:39:15.472Z,6.48
2023-01-04T14:41:46.469Z,6.39
2023-01-04T14:44:16.659Z,6.32
2023-01-04T14:46:47.345Z,6.19
2023-01-04T14:49:16.252Z,6.12
2023-01-04T14:51:48.783Z,6.08
2023-01-04T14:54:24.736Z,5.93
2023-01-04T14:56:56.078Z,5.84
2023-01-04T14:59:25.090Z,5.71
2023-01-04T15:01:53.783Z,5.59
2023-01-04T15:04:22.522Z,5.51
2023-01-04T15:06:53.167Z,5.41
2023-01-04T15:09:23.444Z,5.26
2023-01-04T15:11:52.059Z,5.17
2023-01-04T15:14:21.609Z,5.05
2023-01-04T15:16:53.360Z,4.95
2023-01-04T15:19:22.002Z,4.86
2023-01-04T15:21:50.406Z,4.77
2023-01-04T15:24:18.621Z,4.70
2023-01-04T15:26:49.390Z,4.64
2023-01-04T15:29:17.678Z,4.53
2023-01-04T15:31:46.097Z,4.50
2023-01-04T15:34:17.306Z,4.38
2023-01-04T15:36:46.243Z,4.41
2023-01-04T15:39:15.857Z,4.39
2023-01-04T15:42:01.818Z,4.29
2023-01-04T15:44:31.944Z,4.27
2023-01-04T15:47:00.453Z,4.22
2023-01-04T15:49:31.121Z,4.20
2023-01-04T15:51:59.662Z,4.21
2023-01-04T15:54:28.539Z,4.13
2023-01-04T15:56:59.953Z,4.07
2023-01-04T15:59:28.177Z,4.06
2023-01-04T16:02:01.336Z,4.00
2023-01-04T16:04:30.190Z,3.95
2023-01-04T16:06:58.772Z,3.94
2023-01-04T16:09:27.036Z,3.89
2023-01-04T16:12:12.365Z,3.88
2023-01-04T16:14:40.648Z,3.86
2023-01-04T16:17:10.210Z,3.86
2023-01-04T16:19:38.395Z,3.81
2023-01-04T16:22:06.640Z,3.90
2023-01-04T16:25:09.482Z,3.91
2023-01-04T16:27:23.890Z,3.82
2023-01-04T16:29:54.745Z,3.76
2023-01-04T16:32:27.637Z,3.77
2023-01-04T16:34:57.887Z,3.75
2023-01-04T16:37:29.366Z,3.70
2023-01-04T16:40:06.279Z,3.66
2023-01-04T16:42:35.464Z,3.62
2023-01-04T16:45:03.827Z,3.58
2023-01-04T16:47:42.079Z,3.50
2023-01-04T16:50:11.177Z,3.55
2023-01-04T16:53:00.645Z,3.58
2023-01-04T16:55:29.171Z,3.53
2023-01-04T16:57:57.414Z,3.52
2023-01-04T17:00:26.454Z,3.55
2023-01-04T17:03:01.705Z,3.51
2023-01-04T17:05:31.008Z,3.50
2023-01-04T17:07:59.621Z,3.55
2023-01-04T17:10:29.884Z,3.55
2023-01-04T17:12:58.413Z,3.60
2023-01-04T17:15:43.691Z,3.58
2023-01-04T17:18:15.462Z,3.57
2023-01-04T17:20:45.828Z,3.57
2023-01-04T17:23:14.352Z,3.56
2023-01-04T17:25:42.985Z,3.53
2023-01-04T17:28:12.514Z,3.43
2023-01-04T17:30:42.124Z,3.34
2023-01-04T17:33:11.533Z,3.36
2023-01-04T17:35:42.001Z,3.25
2023-01-04T17:38:10.748Z,3.29
2023-01-04T17:40:39.444Z,3.26
2023-01-04T17:43:11.303Z,3.18
2023-01-04T17:45:41.282Z,3.14
2023-01-04T17:48:10.115Z,3.13
2023-01-04T17:50:39.420Z,3.15
2023-01-04T17:53:09.318Z,3.12
2023-01-04T17:55:41.972Z,3.08
2023-01-04T17:58:12.610Z,3.04
2023-01-04T18:00:43.158Z,2.99
2023-01-04T18:03:12.571Z,2.91
2023-01-04T18:05:51.697Z,2.91
2023-01-04T18:08:24.077Z,2.85
2023-01-04T18:11:09.015Z,2.80
2023-01-04T18:16:24.022Z,2.82
2023-01-04T18:18:56.359Z,2.77
2023-01-04T18:21:32.688Z,2.72
2023-01-04T18:27:21.081Z,2.73
2023-01-04T18:29:45.332Z,2.67
2023-01-04T18:32:15.636Z,2.66
2023-01-04T18:34:45.601Z,2.67
2023-01-04T18:37:16.672Z,2.62
2023-01-04T18:39:47.391Z,2.65
2023-01-04T18:42:17.810Z,2.66
2023-01-04T18:44:49.612Z,2.67
2023-01-04T18:47:24.250Z,2.64
2023-01-04T18:49:56.666Z,2.65
2023-01-04T18:52:27.949Z,2.69
2023-01-04T18:55:03.744Z,2.67
2023-01-04T18:57:38.872Z,2.70
2023-01-04T19:00:12.871Z,2.71
2023-01-04T19:02:44.441Z,2.80
2023-01-04T19:05:24.530Z,2.86
2023-01-04T19:07:54.038Z,2.88
2023-01-04T19:10:26.130Z,2.91
2023-01-04T19:12:56.383Z,2.87
2023-01-04T19:15:27.037Z,2.93
2023-01-04T19:17:57.619Z,2.92
2023-01-04T19:20:27.858Z,2.99
2023-01-04T19:23:01.091Z,2.99
2023-01-04T19:25:37.813Z,3.04
2023-01-04T19:28:07.715Z,2.98
2023-01-04T19:30:40.021Z,3.04
2023-01-04T19:33:13.294Z,3.09
2023-01-04T19:35:47.709Z,3.14
2023-01-04T19:38:18.902Z,3.24
2023-01-04T19:40:58.468Z,3.33
2023-01-04T19:43:33.203Z,3.35
2023-01-04T19:46:03.248Z,3.42
2023-01-04T19:48:33.947Z,3.52
2023-01-04T19:57:40.081Z,3.55
2023-01-04T20:00:14.802Z,3.59
2023-01-04T20:02:44.723Z,3.64
2023-01-04T20:05:15.801Z,3.65
2023-01-04T20:07:51.170Z,3.68
2023-01-04T20:10:21.134Z,3.67
2023-01-04T20:12:52.023Z,3.71
2023-01-04T20:15:23.203Z,3.72
2023-01-04T20:17:52.044Z,3.72
2023-01-04T20:20:23.579Z,3.79
2023-01-04T20:22:53.302Z,3.82
2023-01-04T20:25:26.041Z,3.95
2023-01-04T20:27:56.656Z,4.20
2023-01-04T20:30:26.379Z,4.36
2023-01-04T20:32:56.755Z,4.43
2023-01-04T20:35:26.658Z,4.55
2023-01-04T20:37:57.392Z,4.59
2023-01-04T20:40:30.743Z,4.63
2023-01-04T20:43:19.362Z,4.70
2023-01-04T20:45:51.017Z,4.74
2023-01-04T20:48:20.458Z,4.78
2023-01-04T20:50:52.803Z,4.84
2023-01-04T20:53:24.372Z,4.85
2023-01-04T20:55:54.299Z,4.77
2023-01-04T20:58:25.055Z,4.73
2023-01-04T21:00:54.965Z,4.72
2023-01-04T21:03:24.543Z,4.71
2023-01-04T21:05:54.846Z,4.70
2023-01-04T21:08:24.992Z,4.68
2023-01-04T21:11:21.555Z,4.75
2023-01-04T21:13:56.216Z,4.75
2023-01-04T21:16:29.326Z,4.75
2023-01-04T21:19:06.055Z,4.74
2023-01-04T21:21:35.767Z,4.70
2023-01-04T21:24:05.088Z,4.71
2023-01-04T21:26:38.834Z,4.70
2023-01-04T21:29:08.890Z,4.68
2023-01-04T21:31:54.462Z,4.69
2023-01-04T21:34:44.464Z,4.69
2023-01-04T21:37:12.694Z,4.65
2023-01-04T21:42:33.732Z,4.66
2023-01-04T21:45:02.535Z,4.68
2023-01-04T21:47:31.816Z,4.69
2023-01-04T21:50:00.644Z,4.73
2023-01-04T21:52:29.464Z,4.70
2023-01-04T21:54:57.776Z,4.65
2023-01-04T21:57:26.575Z,4.68
2023-01-04T21:59:56.341Z,4.65
2023-01-04T22:02:24.997Z,4.61
2023-01-04T22:04:54.338Z,4.57
2023-01-04T22:07:22.524Z,4.60
2023-01-04T22:09:57.089Z,4.56
2023-01-04T22:12:25.755Z,4.51
2023-01-04T22:14:55.684Z,4.51
2023-01-04T22:17:24.232Z,4.48
2023-01-04T22:19:52.445Z,4.52
2023-01-04T22:22:20.719Z,4.57
2023-01-04T22:24:50.175Z,4.60
2023-01-04T22:27:18.405Z,4.61
2023-01-04T22:29:46.881Z,4.63
2023-01-04T22:32:16.505Z,4.67
2023-01-04T22:34:44.780Z,4.65
2023-01-04T22:37:12.983Z,4.67
2023-01-04T22:39:41.276Z,4.67
2023-01-04T22:42:09.801Z,4.69
2023-01-04T22:44:38.183Z,4.73
2023-01-04T22:47:06.493Z,4.70
2023-01-04T22:49:36.396Z,4.67
2023-01-04T22:52:04.589Z,4.71
2023-01-04T22:54:33.262Z,4.72
2023-01-04T22:57:01.694Z,4.75
2023-01-04T22:59:29.904Z,4.76
2023-01-04T23:01:58.187Z,4.81
2023-01-04T23:04:26.511Z,4.88
2023-01-04T23:06:56.158Z,4.83
2023-01-04T23:09:24.654Z,4.80
2023-01-04T23:11:52.824Z,4.71
2023-01-04T23:14:21.164Z,4.68
2023-01-04T23:16:49.386Z,4.68
2023-01-04T23:19:17.798Z,4.66
2023-01-04T23:21:45.961Z,4.64
2023-01-04T23:24:16.528Z,4.66
2023-01-04T23:26:47.343Z,4.77
2023-01-04T23:29:15.976Z,4.80
2023-01-04T23:31:44.290Z,4.82
2023-01-04T23:34:13.695Z,4.85
2023-01-04T23:36:43.401Z,4.90
2023-01-04T23:39:16.007Z,4.95
2023-01-04T23:41:47.835Z,4.97
2023-01-04T23:44:19.131Z,5.03
2023-01-04T23:46:48.655Z,5.09
2023-01-04T23:49:18.264Z,5.13
2023-01-04T23:51:46.466Z,5.19
2023-01-04T23:54:16.147Z,5.24
2023-01-04T23:56:44.339Z,5.34
2023-01-04T23:59:12.760Z,5.38
